Flight Track Log - Related Links

Times and Time Zones

All times are in EDT time to prevent confusion due to time zone crossing. See the VH-SOU flight status page for this flight to view local times or setup timezone preferences in your user account.

Time Position Orientation Groundspeed Altitude Reporting Facility
EDT Latitude Longitude Course Direction KTS MPH feet Rate Location/Type
Mon 04:09:47 PM -33.8913 150.9383 306° West 167 192 2,000  Level Aus ATC (RADAR)
Mon 04:10:47 PM -33.8577 150.8824 306° West 204 235 3,300 1,680 Climbing Aus ATC (RADAR)
Mon 04:11:52 PM -33.8383 150.8092 288° West 192 221 5,500 1,776 Climbing Aus ATC (RADAR)
Mon 04:12:52 PM -33.8303 150.7426 278° West 194 223 7,000 1,535 Climbing Aus ATC (RADAR)
Mon 04:14:01 PM -33.8071 150.6668 290° West 202 232 8,800 1,569 Climbing Aus ATC (RADAR)
Mon 04:15:02 PM -33.7879 150.6008 289° West 204 235 10,400 1,584 Climbing Aus ATC (RADAR)
Mon 04:16:06 PM -33.7695 150.5276 287° West 202 232 12,100 1,423 Climbing Aus ATC (RADAR)
Mon 04:18:16 PM -33.7309 150.3769 287° West 214 246 15,000 1,346 Climbing Aus ATC (RADAR)
Mon 04:19:31 PM -33.7080 150.2912 288° West 207 238 16,700 1,200 Climbing Aus ATC (RADAR)
Mon 04:20:41 PM -33.6736 150.2177 299° West 212 244 17,900 1,067 Climbing Aus ATC (RADAR)
Mon 04:21:46 PM -33.6417 150.1478 299° West 214 246 19,100 1,056 Climbing Aus ATC (RADAR)
Mon 04:22:46 PM -33.6121 150.0831 299° West 216 249 20,100 1,000 Climbing Aus ATC (RADAR)
Mon 04:23:46 PM -33.5823 150.0189 299° West 214 246 21,100 968 Climbing Aus ATC (RADAR)
Mon 04:24:50 PM -33.5499 149.9484 299° West 217 250 22,100 977 Climbing Aus ATC (RADAR)
Mon 04:25:55 PM -33.5176 149.8785 299° West 216 249 23,200 923 Climbing Aus ATC (RADAR)
Mon 04:27:00 PM -33.4848 149.8078 299° West 220 253 24,100 816 Climbing Aus ATC (RADAR)
Mon 04:28:00 PM -33.4542 149.7423 299° West 220 253 24,900 864 Climbing Aus ATC (RADAR)
Mon 04:29:05 PM -33.4206 149.6701 299° West 225 259 25,900 528 Climbing Aus ATC (RADAR)
Mon 04:30:05 PM -33.3878 149.5991 299° West 246 283 26,000 48 Climbing Aus ATC (RADAR)
Mon 04:31:10 PM -33.3478 149.5125 299° West 276 318 26,000  Level Aus ATC (RADAR)
Mon 04:32:30 PM -33.2957 149.4000 299° West 288 331 26,000  Level Aus ATC (RADAR)
Mon 04:33:45 PM -33.2461 149.2934 299° West 289 333 26,000  Level Aus ATC (RADAR)
Mon 04:34:50 PM -33.2033 149.2012 299° West 289 333 26,000  Level Aus ATC (RADAR)
Mon 04:35:59 PM -33.1570 149.1024 299° West 287 330 26,000  Level Aus ATC (RADAR)
Mon 04:37:04 PM -33.1141 149.0103 299° West 289 333 26,000  Level Aus ATC (RADAR)
Mon 04:38:04 PM -33.0739 148.9250 299° West 291 335 26,000  Level Aus ATC (RADAR)
Mon 04:39:14 PM -33.0274 148.8256 299° West 291 335 26,000  Level Aus ATC (RADAR)
Mon 04:40:19 PM -32.9840 148.7337 299° West 291 335 26,000  Level Aus ATC (RADAR)
Mon 04:41:24 PM -32.9405 148.6424 300° West 290 334 26,000  Level Aus ATC (RADAR)
Mon 04:42:24 PM -32.9006 148.5576 299° West 290 334 26,000  Level Aus ATC (RADAR)
Mon 04:43:29 PM -32.8570 148.4662 300° West 289 333 26,000  Level Aus ATC (RADAR)
Mon 04:44:34 PM -32.8130 148.3746 300° West 291 335 26,000  Level Aus ATC (RADAR)
Mon 04:45:39 PM -32.7697 148.2827 299° West 289 333 26,000  Level Aus ATC (RADAR)
Mon 04:47:29 PM -32.6955 148.1284 300° West 290 334 26,000  Level Aus ATC (RADAR)
Mon 04:48:39 PM -32.6488 148.0307 300° West 288 331 26,000  Level Aus ATC (RADAR)
Mon 04:49:43 PM -32.6049 147.9399 300° West 289 333 26,000 48 Level Aus ATC (RADAR)
Mon 04:50:43 PM -32.5644 147.8561 300° West 291 335 26,100 48 Climbing Aus ATC (RADAR)
Mon 04:51:48 PM -32.5205 147.7654 300° West 290 334 26,100  Level Aus ATC (RADAR)
Mon 04:52:48 PM -32.4798 147.6818 300° West 290 334 26,100  Level Aus ATC (RADAR)
Mon 04:53:53 PM -32.4359 147.5914 300° West 289 333 26,100  Level Aus ATC (RADAR)
Mon 04:54:58 PM -32.3921 147.5009 300° West 289 333 26,100  Level Aus ATC (RADAR)
Mon 04:56:03 PM -32.3479 147.4112 300° West 289 333 26,100  Level Aus ATC (RADAR)
Mon 04:57:08 PM -32.3042 147.3217 300° West 287 330 26,100  Level Aus ATC (RADAR)
Mon 04:58:13 PM -32.2605 147.2330 300° West 287 330 26,100  Level Aus ATC (RADAR)
Mon 04:59:13 PM -32.2205 147.1512 300° West 285 328 26,100  Level Aus ATC (RADAR)
Mon 05:01:08 PM -32.1435 146.9955 300° West 283 326 26,100 172 Level Aus ATC (RADAR)
Mon 05:02:42 PM -32.0788 146.8699 301° West 278 320 26,700  Climbing Aus ATC (RADAR)
Mon 05:03:37 PM -32.0413 146.7976 301° West 278 320 26,100 -1,200 Descending Aus ATC (RADAR)
Mon 05:06:27 PM -31.9197 146.5467 300° West 335 386 22,200 -1,427 Descending Aus ATC (RADAR)
Mon 05:06:42 PM -31.9076 146.5236 302° West 335 386 21,700 -2,000 Descending Aus ATC (RADAR)
Mon 05:09:47 PM -31.7703 146.2511 301° West 500 -6,876 Descending Aus ATC (Calculated)
Mon 05:11:00 PM -31.7254 146.1624 301° West  Level FlightAware Approximate
Mon 05:12:00 PM -31.6885 146.0897 301° West  Level FlightAware Approximate
Mon 05:13:00 PM -31.6515 146.0170 301° West  Level FlightAware Approximate
Mon 05:14:00 PM -31.6145 145.9443 301° West  Level FlightAware Approximate
Mon 05:14:51 PM -31.5383 145.7939 203° Southwest  Level Aus ATC (Calculated)
Mon 05:16:00 PM -31.5383 145.7939 114° Southeast  Level Estimated
Mon 05:17:00 PM -31.5383 145.7939 114° Southeast  Level Estimated

Login

Don't have an account? Register now (free) for customized features, flight alerts, and more!